aviador You're here:

GMFM Decoded Metar

MEKNES in MOROCCO
Report Time2017-12-15 17:00:00
UTC Time2017-12-15 17:57:51
Flight Rules mvfr MVFR
Wind260° at 08 kt
W.Decomp.*RWY 27: 7.9 kt HW 1.1 kt LCW
RWY 26: 8.0 kt HW 0.3 kt RCW
W.Rank260° ranks 7
Current wind is above 260° avg. (5.1)
Visibility9999 m
Phenomena:N/A
Clouds:Broken 020 Hf
Scattered 100 Hf
Expected CloudBase > 1,600 ft AGL from Temp-Dew spread
Ceiling2,000 ft
Temp15°C (ISA +4)
Dew Point11°C (77% RH)
AAT12.4°C
QNH1019 hPa
Density Alt2,205 ft
Elevation1,801 ft
Report Wrong Elevation
Raw Report
GMFM 151700Z 26008KT 9999 BKN020 SCT100 15/11 Q1019 NOSIG=

Extra information for GMFM:More info

Metar Taf Metar & Taf Last 4 Metars F.Rules Stats Wind Profile Meteogram Temp Stats Airport Information Weather charts Add Link Nearby VenuesMetar ALERT Operation Metar Decoded Social comments